Search for airport 
image banner adimage banner adimage banner ad
image banner ad

3Q0 - Mina

Located in Mina, United States

ICAO - 3Q0, IATA -

Data provided by Airmate  

General information

Coordinates: N38°22'47" W118°5'48"
Elevation is 4557 feet MSL.
Magnetic variation is 15° East
View others Airports in Nevada

Operational data

Special qualification required
Current time UTC:
Current local time:
Weather at : KHTH - Hawthorne Industrial ( 50 km )
METAR: KHTH 130955Z AUTO 00000KT 10SM CLR 21/02 A2996 RMK A01
View NOTAMs / SUP AIP / TFR affecting this airport [VIEW]
Communications frequencies: [VIEW]

Runways:

RWY identifierQFULength (ft)Width (ft)SurfaceLDA (ft)
13152°4600165EARTH
31332°4600165EARTH

Airport contact information

Address: Mina United States

Satellite view of 3Q0